sensor_id;sensor_type;location;lat;lon;timestamp;pressure;altitude;pressure_sealevel;temperature;humidity
62978;BME280;49073;42.352;23.808;2023-03-20T00:00:55;95064.06;;;1.56;78.27
62978;BME280;49073;42.352;23.808;2023-03-20T00:03:56;95064.84;;;1.56;78.67
62978;BME280;49073;42.352;23.808;2023-03-20T00:06:57;95061.88;;;1.63;78.30
62978;BME280;49073;42.352;23.808;2023-03-20T00:09:57;95058.81;;;1.56;78.11
62978;BME280;49073;42.352;23.808;2023-03-20T00:12:58;95060.94;;;1.54;78.61
62978;BME280;49073;42.352;23.808;2023-03-20T00:15:59;95060.16;;;1.53;78.43
62978;BME280;49073;42.352;23.808;2023-03-20T00:19:00;95052.84;;;1.50;79.06
62978;BME280;49073;42.352;23.808;2023-03-20T00:22:02;95053.16;;;1.49;78.64
62978;BME280;49073;42.352;23.808;2023-03-20T00:25:02;95052.50;;;1.38;78.80
62978;BME280;49073;42.352;23.808;2023-03-20T00:31:24;95047.75;;;1.40;78.41
62978;BME280;49073;42.352;23.808;2023-03-20T00:34:27;95046.34;;;1.28;79.22
62978;BME280;49073;42.352;23.808;2023-03-20T00:37:31;95036.03;;;1.32;78.38
62978;BME280;49073;42.352;23.808;2023-03-20T00:40:32;95028.03;;;1.23;79.19
62978;BME280;49073;42.352;23.808;2023-03-20T00:43:33;95031.22;;;1.20;80.06
62978;BME280;49073;42.352;23.808;2023-03-20T00:46:36;95034.19;;;1.33;79.24
62978;BME280;49073;42.352;23.808;2023-03-20T00:49:38;95039.53;;;1.27;79.13
62978;BME280;49073;42.352;23.808;2023-03-20T00:52:39;95037.31;;;1.15;79.42
62978;BME280;49073;42.352;23.808;2023-03-20T00:55:40;95038.03;;;1.21;79.60
62978;BME280;49073;42.352;23.808;2023-03-20T00:58:40;95036.31;;;1.11;79.57
62978;BME280;49073;42.352;23.808;2023-03-20T01:01:41;95036.09;;;1.08;79.87
62978;BME280;49073;42.352;23.808;2023-03-20T01:04:42;95026.09;;;1.10;79.79
62978;BME280;49073;42.352;23.808;2023-03-20T01:07:43;95018.03;;;1.06;80.27
62978;BME280;49073;42.352;23.808;2023-03-20T01:10:46;95016.47;;;1.05;80.41
62978;BME280;49073;42.352;23.808;2023-03-20T01:13:48;95011.28;;;1.00;81.12
62978;BME280;49073;42.352;23.808;2023-03-20T01:16:51;95009.50;;;0.95;81.04
62978;BME280;49073;42.352;23.808;2023-03-20T01:19:52;95019.44;;;0.98;80.86
62978;BME280;49073;42.352;23.808;2023-03-20T01:22:53;95011.63;;;0.93;80.97
62978;BME280;49073;42.352;23.808;2023-03-20T01:25:53;95009.28;;;1.11;81.04
62978;BME280;49073;42.352;23.808;2023-03-20T01:28:54;95002.28;;;1.25;81.22
62978;BME280;49073;42.352;23.808;2023-03-20T01:31:55;95003.34;;;1.24;79.46
62978;BME280;49073;42.352;23.808;2023-03-20T01:34:55;95004.03;;;1.11;79.67
62978;BME280;49073;42.352;23.808;2023-03-20T01:37:56;94995.41;;;1.10;79.50
62978;BME280;49073;42.352;23.808;2023-03-20T01:41:08;94998.72;;;0.97;79.51
62978;BME280;49073;42.352;23.808;2023-03-20T01:44:20;94993.56;;;0.92;78.73
62978;BME280;49073;42.352;23.808;2023-03-20T01:47:23;94983.66;;;0.83;79.30
62978;BME280;49073;42.352;23.808;2023-03-20T01:53:27;94985.22;;;0.84;79.75
62978;BME280;49073;42.352;23.808;2023-03-20T01:56:31;94988.16;;;0.83;80.02
62978;BME280;49073;42.352;23.808;2023-03-20T01:59:38;94989.78;;;0.79;80.57
62978;BME280;49073;42.352;23.808;2023-03-20T02:02:44;94986.28;;;0.83;79.84
62978;BME280;49073;42.352;23.808;2023-03-20T02:05:47;94984.03;;;0.77;80.22
62978;BME280;49073;42.352;23.808;2023-03-20T02:08:49;94981.13;;;0.78;80.04
62978;BME280;49073;42.352;23.808;2023-03-20T02:11:51;94977.44;;;0.79;80.27
62978;BME280;49073;42.352;23.808;2023-03-20T02:14:53;94985.59;;;0.78;80.38
62978;BME280;49073;42.352;23.808;2023-03-20T02:17:53;94981.19;;;0.73;81.32
62978;BME280;49073;42.352;23.808;2023-03-20T02:27:24;94980.31;;;0.58;80.78
62978;BME280;49073;42.352;23.808;2023-03-20T02:37:23;94966.13;;;0.40;81.33
62978;BME280;49073;42.352;23.808;2023-03-20T02:40:47;94972.97;;;0.36;81.99
62978;BME280;49073;42.352;23.808;2023-03-20T02:50:14;94970.84;;;0.38;82.76
62978;BME280;49073;42.352;23.808;2023-03-20T03:06:41;94973.09;;;0.50;81.55
62978;BME280;49073;42.352;23.808;2023-03-20T03:09:50;94971.59;;;0.44;81.76
62978;BME280;49073;42.352;23.808;2023-03-20T03:12:53;94970.47;;;0.50;82.36
62978;BME280;49073;42.352;23.808;2023-03-20T03:15:59;94961.81;;;0.50;82.34
62978;BME280;49073;42.352;23.808;2023-03-20T03:19:07;94959.69;;;0.52;82.76
62978;BME280;49073;42.352;23.808;2023-03-20T03:22:09;94954.06;;;0.39;83.09
62978;BME280;49073;42.352;23.808;2023-03-20T03:25:11;94952.25;;;0.40;82.01
62978;BME280;49073;42.352;23.808;2023-03-20T03:28:22;94950.94;;;0.37;81.76
62978;BME280;49073;42.352;23.808;2023-03-20T03:31:25;94955.44;;;0.37;82.20
62978;BME280;49073;42.352;23.808;2023-03-20T03:34:26;94952.31;;;0.35;82.59
62978;BME280;49073;42.352;23.808;2023-03-20T03:37:37;94952.56;;;0.33;82.03
62978;BME280;49073;42.352;23.808;2023-03-20T03:41:41;94951.41;;;0.20;83.05
62978;BME280;49073;42.352;23.808;2023-03-20T03:44:45;94960.44;;;0.33;84.26
62978;BME280;49073;42.352;23.808;2023-03-20T03:48:12;94952.06;;;0.31;82.96
62978;BME280;49073;42.352;23.808;2023-03-20T03:51:22;94949.94;;;0.33;82.44
62978;BME280;49073;42.352;23.808;2023-03-20T03:54:27;94946.41;;;0.24;82.47
62978;BME280;49073;42.352;23.808;2023-03-20T03:57:40;94941.34;;;0.27;82.67
62978;BME280;49073;42.352;23.808;2023-03-20T04:00:43;94949.63;;;0.16;82.05
62978;BME280;49073;42.352;23.808;2023-03-20T04:03:53;94941.53;;;0.12;82.75
62978;BME280;49073;42.352;23.808;2023-03-20T04:06:55;94944.41;;;0.16;83.02
62978;BME280;49073;42.352;23.808;2023-03-20T04:09:56;94939.34;;;0.19;82.84
62978;BME280;49073;42.352;23.808;2023-03-20T04:12:56;94942.53;;;0.16;82.96
62978;BME280;49073;42.352;23.808;2023-03-20T04:15:57;94936.47;;;0.21;82.84
62978;BME280;49073;42.352;23.808;2023-03-20T04:18:57;94926.88;;;0.11;83.36
62978;BME280;49073;42.352;23.808;2023-03-20T04:21:58;94928.78;;;0.05;82.86
62978;BME280;49073;42.352;23.808;2023-03-20T04:24:58;94936.34;;;0.07;82.95
62978;BME280;49073;42.352;23.808;2023-03-20T04:27:59;94932.56;;;-0.06;83.57
62978;BME280;49073;42.352;23.808;2023-03-20T04:31:00;94933.56;;;-0.02;84.65
62978;BME280;49073;42.352;23.808;2023-03-20T04:34:01;94933.53;;;0.03;84.92
62978;BME280;49073;42.352;23.808;2023-03-20T04:37:02;94940.78;;;0.11;84.93
62978;BME280;49073;42.352;23.808;2023-03-20T04:40:05;94938.41;;;0.10;84.88
62978;BME280;49073;42.352;23.808;2023-03-20T04:43:09;94936.59;;;0.10;85.25
62978;BME280;49073;42.352;23.808;2023-03-20T04:46:10;94941.78;;;0.16;85.33
62978;BME280;49073;42.352;23.808;2023-03-20T04:49:11;94942.72;;;0.25;85.75
62978;BME280;49073;42.352;23.808;2023-03-20T04:52:12;94947.84;;;0.35;85.64
62978;BME280;49073;42.352;23.808;2023-03-20T04:55:13;94956.69;;;0.39;85.43
62978;BME280;49073;42.352;23.808;2023-03-20T04:58:14;94957.00;;;0.38;85.89
62978;BME280;49073;42.352;23.808;2023-03-20T05:01:14;94952.94;;;0.46;86.69
62978;BME280;49073;42.352;23.808;2023-03-20T05:04:15;94953.44;;;0.48;86.63
62978;BME280;49073;42.352;23.808;2023-03-20T05:07:16;94968.38;;;0.71;86.90
62978;BME280;49073;42.352;23.808;2023-03-20T05:10:17;94952.50;;;0.82;87.77
62978;BME280;49073;42.352;23.808;2023-03-20T05:13:18;94948.88;;;0.97;88.83
62978;BME280;49073;42.352;23.808;2023-03-20T05:16:18;94952.75;;;0.99;89.50
62978;BME280;49073;42.352;23.808;2023-03-20T05:19:19;94947.78;;;1.17;90.20
62978;BME280;49073;42.352;23.808;2023-03-20T05:22:20;94953.41;;;1.43;90.42
62978;BME280;49073;42.352;23.808;2023-03-20T05:25:21;94949.16;;;1.48;90.91
62978;BME280;49073;42.352;23.808;2023-03-20T05:28:22;94945.00;;;1.60;90.65
62978;BME280;49073;42.352;23.808;2023-03-20T05:31:23;94954.09;;;1.82;90.17
62978;BME280;49073;42.352;23.808;2023-03-20T05:34:23;94949.06;;;2.00;90.84
62978;BME280;49073;42.352;23.808;2023-03-20T05:37:25;94947.50;;;1.99;91.59
62978;BME280;49073;42.352;23.808;2023-03-20T05:40:29;94942.16;;;2.04;91.98
62978;BME280;49073;42.352;23.808;2023-03-20T05:43:30;94946.34;;;2.19;91.27
62978;BME280;49073;42.352;23.808;2023-03-20T05:46:31;94953.13;;;2.34;90.94
62978;BME280;49073;42.352;23.808;2023-03-20T05:49:31;94954.22;;;2.47;89.82
62978;BME280;49073;42.352;23.808;2023-03-20T05:52:31;94951.97;;;2.54;89.84
62978;BME280;49073;42.352;23.808;2023-03-20T05:55:32;94954.88;;;2.67;88.63
62978;BME280;49073;42.352;23.808;2023-03-20T05:58:33;94965.31;;;2.72;88.83
62978;BME280;49073;42.352;23.808;2023-03-20T06:01:34;94953.13;;;2.76;88.28
62978;BME280;49073;42.352;23.808;2023-03-20T06:04:35;94961.28;;;2.88;88.17
62978;BME280;49073;42.352;23.808;2023-03-20T06:07:36;94952.06;;;3.00;87.21
62978;BME280;49073;42.352;23.808;2023-03-20T06:10:37;94960.56;;;3.19;86.23
62978;BME280;49073;42.352;23.808;2023-03-20T06:13:37;94954.97;;;3.35;86.25
62978;BME280;49073;42.352;23.808;2023-03-20T06:16:38;94960.94;;;3.49;85.49
62978;BME280;49073;42.352;23.808;2023-03-20T06:19:39;94954.19;;;3.57;87.29
62978;BME280;49073;42.352;23.808;2023-03-20T06:22:39;94953.94;;;3.68;87.83
62978;BME280;49073;42.352;23.808;2023-03-20T06:25:41;94958.69;;;3.88;87.16
62978;BME280;49073;42.352;23.808;2023-03-20T06:28:42;94949.28;;;4.05;87.15
62978;BME280;49073;42.352;23.808;2023-03-20T06:31:43;94945.19;;;4.21;85.96
62978;BME280;49073;42.352;23.808;2023-03-20T06:34:43;94945.19;;;4.30;85.71
62978;BME280;49073;42.352;23.808;2023-03-20T06:37:44;94946.81;;;4.49;84.58
62978;BME280;49073;42.352;23.808;2023-03-20T06:40:45;94949.03;;;4.64;84.56
62978;BME280;49073;42.352;23.808;2023-03-20T06:43:45;94949.06;;;4.73;83.51
62978;BME280;49073;42.352;23.808;2023-03-20T06:46:46;94945.63;;;4.90;84.61
62978;BME280;49073;42.352;23.808;2023-03-20T06:49:47;94943.91;;;4.94;83.35
62978;BME280;49073;42.352;23.808;2023-03-20T06:52:47;94952.66;;;5.04;83.40
62978;BME280;49073;42.352;23.808;2023-03-20T06:55:49;94952.00;;;5.16;82.07
62978;BME280;49073;42.352;23.808;2023-03-20T06:58:49;94949.84;;;5.35;81.10
62978;BME280;49073;42.352;23.808;2023-03-20T07:01:50;94954.03;;;5.54;80.66
62978;BME280;49073;42.352;23.808;2023-03-20T07:04:51;94942.97;;;5.52;79.10
62978;BME280;49073;42.352;23.808;2023-03-20T07:07:52;94942.94;;;5.70;78.64
62978;BME280;49073;42.352;23.808;2023-03-20T07:10:53;94943.66;;;5.96;78.70
62978;BME280;49073;42.352;23.808;2023-03-20T07:13:54;94942.06;;;6.13;77.14
62978;BME280;49073;42.352;23.808;2023-03-20T07:16:55;94940.06;;;6.40;76.87
62978;BME280;49073;42.352;23.808;2023-03-20T07:19:55;94938.84;;;6.67;74.75
62978;BME280;49073;42.352;23.808;2023-03-20T07:22:56;94937.09;;;6.72;73.44
62978;BME280;49073;42.352;23.808;2023-03-20T07:25:57;94929.50;;;6.91;69.44
62978;BME280;49073;42.352;23.808;2023-03-20T07:28:58;94935.25;;;7.15;72.48
62978;BME280;49073;42.352;23.808;2023-03-20T07:31:58;94932.31;;;7.28;70.10
62978;BME280;49073;42.352;23.808;2023-03-20T07:35:00;94929.88;;;7.57;68.93
62978;BME280;49073;42.352;23.808;2023-03-20T07:38:01;94929.00;;;7.65;65.63
62978;BME280;49073;42.352;23.808;2023-03-20T07:41:02;94932.38;;;7.75;64.13
62978;BME280;49073;42.352;23.808;2023-03-20T07:44:03;94927.78;;;7.96;64.98
62978;BME280;49073;42.352;23.808;2023-03-20T07:47:04;94934.19;;;7.95;62.39
62978;BME280;49073;42.352;23.808;2023-03-20T07:50:06;94929.78;;;8.24;62.56
62978;BME280;49073;42.352;23.808;2023-03-20T07:53:07;94936.31;;;8.39;59.87
62978;BME280;49073;42.352;23.808;2023-03-20T07:56:08;94928.38;;;8.64;60.63
62978;BME280;49073;42.352;23.808;2023-03-20T07:59:08;94918.91;;;8.79;60.02
62978;BME280;49073;42.352;23.808;2023-03-20T08:02:14;94929.94;;;9.06;58.91
62978;BME280;49073;42.352;23.808;2023-03-20T08:05:15;94921.69;;;9.24;56.94
62978;BME280;49073;42.352;23.808;2023-03-20T08:08:16;94928.81;;;9.48;55.36
62978;BME280;49073;42.352;23.808;2023-03-20T08:11:17;94925.13;;;9.53;54.21
62978;BME280;49073;42.352;23.808;2023-03-20T08:14:17;94919.69;;;9.78;52.85
62978;BME280;49073;42.352;23.808;2023-03-20T08:17:18;94922.28;;;10.06;52.49
62978;BME280;49073;42.352;23.808;2023-03-20T08:20:19;94919.19;;;10.20;50.45
62978;BME280;49073;42.352;23.808;2023-03-20T08:23:21;94918.34;;;10.48;49.12
62978;BME280;49073;42.352;23.808;2023-03-20T08:26:21;94913.06;;;10.68;49.39
62978;BME280;49073;42.352;23.808;2023-03-20T08:29:22;94913.00;;;10.84;49.64
62978;BME280;49073;42.352;23.808;2023-03-20T08:32:23;94911.63;;;10.90;48.91
62978;BME280;49073;42.352;23.808;2023-03-20T08:35:24;94918.94;;;11.13;49.11
62978;BME280;49073;42.352;23.808;2023-03-20T08:38:25;94909.47;;;11.15;48.36
62978;BME280;49073;42.352;23.808;2023-03-20T08:41:25;94911.72;;;11.33;48.41
62978;BME280;49073;42.352;23.808;2023-03-20T08:44:26;94907.91;;;11.54;47.68
62978;BME280;49073;42.352;23.808;2023-03-20T08:47:27;94909.97;;;11.84;48.23
62978;BME280;49073;42.352;23.808;2023-03-20T08:50:27;94909.16;;;12.03;47.82
62978;BME280;49073;42.352;23.808;2023-03-20T08:53:28;94900.63;;;12.17;47.57
62978;BME280;49073;42.352;23.808;2023-03-20T08:56:28;94901.41;;;12.44;48.81
62978;BME280;49073;42.352;23.808;2023-03-20T08:59:29;94901.38;;;12.68;47.61
62978;BME280;49073;42.352;23.808;2023-03-20T09:02:31;94895.72;;;13.03;46.21
62978;BME280;49073;42.352;23.808;2023-03-20T09:05:35;94893.81;;;13.38;45.58
62978;BME280;49073;42.352;23.808;2023-03-20T09:08:37;94882.81;;;13.43;44.54
62978;BME280;49073;42.352;23.808;2023-03-20T09:11:37;94887.22;;;13.62;45.20
62978;BME280;49073;42.352;23.808;2023-03-20T09:14:38;94887.06;;;13.86;44.13
62978;BME280;49073;42.352;23.808;2023-03-20T09:17:39;94879.28;;;14.15;43.22
62978;BME280;49073;42.352;23.808;2023-03-20T09:20:39;94873.16;;;14.14;42.91
62978;BME280;49073;42.352;23.808;2023-03-20T09:23:40;94869.50;;;14.40;43.89
62978;BME280;49073;42.352;23.808;2023-03-20T09:26:41;94865.75;;;14.56;43.44
62978;BME280;49073;42.352;23.808;2023-03-20T09:29:42;94861.22;;;14.67;42.25
62978;BME280;49073;42.352;23.808;2023-03-20T09:32:43;94862.91;;;14.90;41.01
62978;BME280;49073;42.352;23.808;2023-03-20T09:35:43;94861.50;;;15.25;41.65
62978;BME280;49073;42.352;23.808;2023-03-20T09:38:44;94856.22;;;15.40;40.19
62978;BME280;49073;42.352;23.808;2023-03-20T09:41:48;94847.03;;;15.63;40.50
62978;BME280;49073;42.352;23.808;2023-03-20T09:48:14;94828.28;;;15.92;36.93
62978;BME280;49073;42.352;23.808;2023-03-20T09:54:49;94824.00;;;16.52;35.73
62978;BME280;49073;42.352;23.808;2023-03-20T09:57:56;94824.69;;;16.85;37.06
62978;BME280;49073;42.352;23.808;2023-03-20T10:01:00;94814.88;;;17.32;35.12
62978;BME280;49073;42.352;23.808;2023-03-20T10:04:06;94814.41;;;17.48;36.07
62978;BME280;49073;42.352;23.808;2023-03-20T10:07:09;94805.19;;;17.45;33.47
62978;BME280;49073;42.352;23.808;2023-03-20T10:10:14;94804.00;;;17.50;32.55
62978;BME280;49073;42.352;23.808;2023-03-20T10:19:35;94799.72;;;17.56;32.96
62978;BME280;49073;42.352;23.808;2023-03-20T10:22:50;94781.25;;;17.58;31.96
62978;BME280;49073;42.352;23.808;2023-03-20T10:26:12;94775.06;;;17.57;32.29
62978;BME280;49073;42.352;23.808;2023-03-20T10:29:30;94767.16;;;17.88;32.05
62978;BME280;49073;42.352;23.808;2023-03-20T10:32:59;94771.31;;;17.93;31.86
62978;BME280;49073;42.352;23.808;2023-03-20T10:36:18;94763.72;;;17.81;31.33
62978;BME280;49073;42.352;23.808;2023-03-20T10:39:33;94760.59;;;17.89;30.99
62978;BME280;49073;42.352;23.808;2023-03-20T10:42:41;94757.63;;;18.18;30.18
62978;BME280;49073;42.352;23.808;2023-03-20T10:45:51;94746.19;;;18.11;28.93
62978;BME280;49073;42.352;23.808;2023-03-20T10:49:03;94740.53;;;18.36;29.34
62978;BME280;49073;42.352;23.808;2023-03-20T10:52:33;94734.16;;;18.54;28.78
62978;BME280;49073;42.352;23.808;2023-03-20T10:55:38;94746.03;;;18.60;29.12
62978;BME280;49073;42.352;23.808;2023-03-20T10:58:44;94736.66;;;18.72;28.05
62978;BME280;49073;42.352;23.808;2023-03-20T11:01:46;94728.56;;;19.03;26.69
62978;BME280;49073;42.352;23.808;2023-03-20T11:04:47;94724.31;;;19.02;26.79
62978;BME280;49073;42.352;23.808;2023-03-20T11:08:03;94727.44;;;18.97;26.61
62978;BME280;49073;42.352;23.808;2023-03-20T11:11:05;94720.00;;;19.08;26.99
62978;BME280;49073;42.352;23.808;2023-03-20T11:14:19;94716.56;;;19.31;25.99
62978;BME280;49073;42.352;23.808;2023-03-20T11:17:27;94707.13;;;19.19;26.22
62978;BME280;49073;42.352;23.808;2023-03-20T11:20:38;94706.13;;;19.33;25.61
62978;BME280;49073;42.352;23.808;2023-03-20T11:23:43;94701.34;;;19.17;25.55
62978;BME280;49073;42.352;23.808;2023-03-20T11:26:43;94691.84;;;19.33;25.30
62978;BME280;49073;42.352;23.808;2023-03-20T11:29:48;94694.13;;;19.34;25.26
62978;BME280;49073;42.352;23.808;2023-03-20T11:32:50;94683.63;;;19.64;23.74
62978;BME280;49073;42.352;23.808;2023-03-20T11:35:55;94684.66;;;19.50;23.76
62978;BME280;49073;42.352;23.808;2023-03-20T11:39:01;94681.44;;;19.31;23.74
62978;BME280;49073;42.352;23.808;2023-03-20T11:42:22;94670.06;;;19.44;23.68
62978;BME280;49073;42.352;23.808;2023-03-20T11:45:23;94672.81;;;19.64;22.35
62978;BME280;49073;42.352;23.808;2023-03-20T11:48:35;94672.19;;;19.56;23.15
62978;BME280;49073;42.352;23.808;2023-03-20T11:51:36;94671.13;;;19.50;22.47
62978;BME280;49073;42.352;23.808;2023-03-20T11:54:38;94669.25;;;19.71;22.17
62978;BME280;49073;42.352;23.808;2023-03-20T11:57:46;94669.13;;;19.78;22.69
62978;BME280;49073;42.352;23.808;2023-03-20T12:00:49;94665.34;;;19.96;21.94
62978;BME280;49073;42.352;23.808;2023-03-20T12:04:14;94660.94;;;20.05;23.24
62978;BME280;49073;42.352;23.808;2023-03-20T12:07:16;94665.69;;;19.98;22.68
62978;BME280;49073;42.352;23.808;2023-03-20T12:10:19;94657.34;;;19.88;21.77
62978;BME280;49073;42.352;23.808;2023-03-20T12:13:26;94653.94;;;19.84;22.11
62978;BME280;49073;42.352;23.808;2023-03-20T12:16:29;94649.69;;;20.07;21.34
62978;BME280;49073;42.352;23.808;2023-03-20T12:19:31;94646.84;;;19.94;20.97
62978;BME280;49073;42.352;23.808;2023-03-20T12:22:36;94650.09;;;20.05;21.08
62978;BME280;49073;42.352;23.808;2023-03-20T12:25:53;94641.34;;;19.98;21.53
62978;BME280;49073;42.352;23.808;2023-03-20T12:29:09;94639.56;;;20.11;21.10
62978;BME280;49073;42.352;23.808;2023-03-20T12:32:34;94632.50;;;20.17;21.79
62978;BME280;49073;42.352;23.808;2023-03-20T12:35:42;94634.16;;;20.11;22.07
62978;BME280;49073;42.352;23.808;2023-03-20T12:38:44;94631.16;;;20.26;22.27
62978;BME280;49073;42.352;23.808;2023-03-20T12:45:22;94626.31;;;20.17;20.83
62978;BME280;49073;42.352;23.808;2023-03-20T12:48:42;94630.00;;;20.27;21.25
62978;BME280;49073;42.352;23.808;2023-03-20T12:52:02;94628.50;;;20.42;21.48
62978;BME280;49073;42.352;23.808;2023-03-20T12:55:20;94620.50;;;20.18;21.15
62978;BME280;49073;42.352;23.808;2023-03-20T13:05:01;94614.16;;;20.25;21.23
62978;BME280;49073;42.352;23.808;2023-03-20T13:08:35;94616.66;;;20.36;20.65
62978;BME280;49073;42.352;23.808;2023-03-20T13:18:19;94595.34;;;20.38;21.41
62978;BME280;49073;42.352;23.808;2023-03-20T13:25:07;94595.69;;;20.40;21.01
62978;BME280;49073;42.352;23.808;2023-03-20T13:28:23;94591.53;;;20.35;21.73
62978;BME280;49073;42.352;23.808;2023-03-20T13:31:42;94591.38;;;20.43;21.63
62978;BME280;49073;42.352;23.808;2023-03-20T13:38:18;94586.88;;;20.36;22.31
62978;BME280;49073;42.352;23.808;2023-03-20T13:41:21;94582.16;;;20.40;22.71
62978;BME280;49073;42.352;23.808;2023-03-20T13:44:26;94583.53;;;20.48;21.58
62978;BME280;49073;42.352;23.808;2023-03-20T13:47:31;94575.16;;;20.43;22.04
62978;BME280;49073;42.352;23.808;2023-03-20T14:01:07;94564.06;;;19.56;30.35
62978;BME280;49073;42.352;23.808;2023-03-20T14:04:15;94565.63;;;19.33;31.39
62978;BME280;49073;42.352;23.808;2023-03-20T14:07:37;94562.00;;;19.20;31.53
62978;BME280;49073;42.352;23.808;2023-03-20T14:10:38;94562.94;;;19.10;31.65
62978;BME280;49073;42.352;23.808;2023-03-20T14:13:44;94557.31;;;18.97;31.63
62978;BME280;49073;42.352;23.808;2023-03-20T14:16:46;94562.66;;;18.76;31.84
62978;BME280;49073;42.352;23.808;2023-03-20T14:19:49;94568.97;;;18.39;32.67
62978;BME280;49073;42.352;23.808;2023-03-20T14:22:51;94576.06;;;18.29;33.42
62978;BME280;49073;42.352;23.808;2023-03-20T14:25:53;94568.22;;;18.07;33.46
62978;BME280;49073;42.352;23.808;2023-03-20T14:38:17;94574.13;;;17.95;34.72
62978;BME280;49073;42.352;23.808;2023-03-20T14:48:38;94556.31;;;17.70;35.78
62978;BME280;49073;42.352;23.808;2023-03-20T14:51:44;94563.28;;;17.64;35.95
62978;BME280;49073;42.352;23.808;2023-03-20T14:54:51;94561.84;;;17.55;35.46
62978;BME280;49073;42.352;23.808;2023-03-20T14:57:53;94560.72;;;17.53;35.95
62978;BME280;49073;42.352;23.808;2023-03-20T15:00:55;94556.16;;;17.50;35.85
62978;BME280;49073;42.352;23.808;2023-03-20T15:04:08;94548.56;;;17.37;36.45
62978;BME280;49073;42.352;23.808;2023-03-20T15:10:20;94545.56;;;17.28;36.30
62978;BME280;49073;42.352;23.808;2023-03-20T15:13:21;94546.50;;;17.14;36.30
62978;BME280;49073;42.352;23.808;2023-03-20T15:16:27;94553.13;;;16.98;37.30
62978;BME280;49073;42.352;23.808;2023-03-20T15:19:28;94555.91;;;16.84;37.38
62978;BME280;49073;42.352;23.808;2023-03-20T15:22:28;94564.84;;;16.73;37.54
62978;BME280;49073;42.352;23.808;2023-03-20T15:25:41;94567.91;;;16.72;37.89
62978;BME280;49073;42.352;23.808;2023-03-20T15:28:48;94567.22;;;16.61;38.46
62978;BME280;49073;42.352;23.808;2023-03-20T15:31:57;94572.75;;;16.39;38.08
62978;BME280;49073;42.352;23.808;2023-03-20T15:34:58;94583.94;;;16.30;38.52
62978;BME280;49073;42.352;23.808;2023-03-20T15:38:04;94584.41;;;16.14;39.02
62978;BME280;49073;42.352;23.808;2023-03-20T15:41:07;94584.84;;;16.02;39.57
62978;BME280;49073;42.352;23.808;2023-03-20T15:47:17;94597.94;;;15.85;40.06
62978;BME280;49073;42.352;23.808;2023-03-20T15:50:21;94589.91;;;15.74;40.47
62978;BME280;49073;42.352;23.808;2023-03-20T15:53:35;94584.91;;;15.69;40.40
62978;BME280;49073;42.352;23.808;2023-03-20T15:56:37;94590.69;;;15.67;40.82
62978;BME280;49073;42.352;23.808;2023-03-20T15:59:42;94582.66;;;15.53;40.69
62978;BME280;49073;42.352;23.808;2023-03-20T16:02:44;94588.03;;;15.53;40.99
62978;BME280;49073;42.352;23.808;2023-03-20T16:05:48;94586.91;;;15.39;41.01
62978;BME280;49073;42.352;23.808;2023-03-20T16:09:01;94590.75;;;15.38;41.10
62978;BME280;49073;42.352;23.808;2023-03-20T16:12:14;94593.81;;;15.33;41.46
62978;BME280;49073;42.352;23.808;2023-03-20T16:15:16;94598.06;;;15.27;42.85
62978;BME280;49073;42.352;23.808;2023-03-20T16:18:18;94606.88;;;14.80;44.74
62978;BME280;49073;42.352;23.808;2023-03-20T16:21:31;94614.47;;;14.64;45.15
62978;BME280;49073;42.352;23.808;2023-03-20T16:24:37;94618.59;;;14.25;46.22
62978;BME280;49073;42.352;23.808;2023-03-20T16:27:39;94625.34;;;13.90;47.70
62978;BME280;49073;42.352;23.808;2023-03-20T16:30:40;94625.19;;;13.61;48.63
62978;BME280;49073;42.352;23.808;2023-03-20T16:33:42;94632.53;;;13.19;48.71
62978;BME280;49073;42.352;23.808;2023-03-20T16:36:50;94635.25;;;12.81;50.35
62978;BME280;49073;42.352;23.808;2023-03-20T16:43:22;94642.38;;;12.66;49.81
62978;BME280;49073;42.352;23.808;2023-03-20T16:46:27;94626.88;;;12.41;51.37
62978;BME280;49073;42.352;23.808;2023-03-20T16:52:35;94635.97;;;12.36;50.51
62978;BME280;49073;42.352;23.808;2023-03-20T16:55:43;94643.59;;;12.34;50.70
62978;BME280;49073;42.352;23.808;2023-03-20T16:58:44;94641.69;;;12.35;50.62
62978;BME280;49073;42.352;23.808;2023-03-20T17:01:46;94644.56;;;12.19;51.03
62978;BME280;49073;42.352;23.808;2023-03-20T17:04:48;94652.25;;;11.93;51.54
62978;BME280;49073;42.352;23.808;2023-03-20T17:08:02;94651.59;;;12.00;51.96
62978;BME280;49073;42.352;23.808;2023-03-20T17:11:09;94652.16;;;11.86;52.07
62978;BME280;49073;42.352;23.808;2023-03-20T17:14:10;94655.50;;;11.79;52.24
62978;BME280;49073;42.352;23.808;2023-03-20T17:17:16;94664.91;;;11.70;52.31
62978;BME280;49073;42.352;23.808;2023-03-20T17:20:24;94665.66;;;11.43;53.60
62978;BME280;49073;42.352;23.808;2023-03-20T17:23:25;94676.66;;;11.38;53.86
62978;BME280;49073;42.352;23.808;2023-03-20T17:26:25;94671.66;;;11.13;54.48
62978;BME280;49073;42.352;23.808;2023-03-20T17:29:26;94663.97;;;10.85;55.69
62978;BME280;49073;42.352;23.808;2023-03-20T17:32:27;94669.25;;;10.81;55.61
62978;BME280;49073;42.352;23.808;2023-03-20T17:35:28;94661.84;;;10.71;55.83
62978;BME280;49073;42.352;23.808;2023-03-20T17:38:28;94660.19;;;10.62;56.45
62978;BME280;49073;42.352;23.808;2023-03-20T17:41:29;94662.44;;;10.41;57.19
62978;BME280;49073;42.352;23.808;2023-03-20T17:44:29;94650.84;;;10.33;57.75
62978;BME280;49073;42.352;23.808;2023-03-20T17:47:30;94662.41;;;10.21;57.97
62978;BME280;49073;42.352;23.808;2023-03-20T17:50:31;94650.00;;;10.09;58.49
62978;BME280;49073;42.352;23.808;2023-03-20T17:53:31;94659.91;;;10.09;58.57
62978;BME280;49073;42.352;23.808;2023-03-20T17:56:32;94665.97;;;9.89;58.97
62978;BME280;49073;42.352;23.808;2023-03-20T17:59:33;94671.94;;;9.67;59.43
62978;BME280;49073;42.352;23.808;2023-03-20T18:02:34;94673.06;;;9.66;58.97
62978;BME280;49073;42.352;23.808;2023-03-20T18:05:34;94676.94;;;9.52;59.60